createdAt,value
2019-01-24T00:00:38.295Z,-7.10
2019-01-24T00:03:07.990Z,-7.10
2019-01-24T00:05:37.613Z,-7.10
2019-01-24T00:08:07.303Z,-7.10
2019-01-24T00:10:36.890Z,-7.10
2019-01-24T00:13:06.722Z,-7.10
2019-01-24T00:15:36.341Z,-7.10
2019-01-24T00:18:06.009Z,-7.10
2019-01-24T00:20:35.626Z,-7.10
2019-01-24T00:23:05.415Z,-7.10
2019-01-24T00:25:35.142Z,-7.10
2019-01-24T00:28:04.840Z,-7.10
2019-01-24T00:30:34.466Z,-7.20
2019-01-24T00:33:04.215Z,-7.10
2019-01-24T00:35:33.882Z,-7.20
2019-01-24T00:38:03.642Z,-7.10
2019-01-24T00:40:33.252Z,-7.20
2019-01-24T00:43:02.933Z,-7.20
2019-01-24T00:45:32.685Z,-7.20
2019-01-24T00:48:02.321Z,-7.30
2019-01-24T00:50:32.023Z,-7.40
2019-01-24T00:53:01.679Z,-7.40
2019-01-24T00:55:31.353Z,-7.40
2019-01-24T00:58:00.964Z,-7.50
2019-01-24T01:00:30.724Z,-7.50
2019-01-24T01:03:00.332Z,-7.50
2019-01-24T01:05:30.089Z,-7.50
2019-01-24T01:07:59.729Z,-7.50
2019-01-24T01:10:29.484Z,-7.50
2019-01-24T01:12:59.469Z,-7.50
2019-01-24T01:15:29.190Z,-7.50
2019-01-24T01:17:58.934Z,-7.50
2019-01-24T01:20:28.704Z,-7.50
2019-01-24T01:22:58.432Z,-7.50
2019-01-24T01:25:28.128Z,-7.50
2019-01-24T01:27:57.826Z,-7.50
2019-01-24T01:30:27.399Z,-7.50
2019-01-24T01:32:57.103Z,-7.50
2019-01-24T01:35:26.684Z,-7.50
2019-01-24T01:37:56.400Z,-7.50
2019-01-24T01:40:26.075Z,-7.50
2019-01-24T01:42:56.710Z,-7.50
2019-01-24T01:45:26.423Z,-7.50
2019-01-24T01:47:56.016Z,-7.60
2019-01-24T01:50:25.844Z,-7.60
2019-01-24T01:52:55.535Z,-7.60
2019-01-24T01:55:25.228Z,-7.60
2019-01-24T01:57:54.920Z,-7.70
2019-01-24T02:00:25.988Z,-7.70
2019-01-24T02:02:55.754Z,-7.70
2019-01-24T02:05:25.335Z,-7.70
2019-01-24T02:07:55.095Z,-7.70
2019-01-24T02:10:25.020Z,-7.70
2019-01-24T02:12:54.708Z,-7.80
2019-01-24T02:15:24.376Z,-7.80
2019-01-24T02:17:54.143Z,-7.80
2019-01-24T02:20:24.451Z,-7.70
2019-01-24T02:22:54.042Z,-7.80
2019-01-24T02:25:23.773Z,-7.80
2019-01-24T02:27:53.480Z,-7.80
2019-01-24T02:30:28.333Z,-7.80
2019-01-24T02:32:58.010Z,-7.80
2019-01-24T02:35:27.799Z,-7.80
2019-01-24T02:37:57.543Z,-7.80
2019-01-24T02:40:27.279Z,-7.80
2019-01-24T02:42:57.051Z,-7.90
2019-01-24T02:45:26.632Z,-7.90
2019-01-24T02:47:56.301Z,-7.90
2019-01-24T02:50:25.981Z,-8.00
2019-01-24T02:52:55.671Z,-8.00
2019-01-24T02:55:25.397Z,-8.10
2019-01-24T02:57:55.099Z,-8.10
2019-01-24T03:00:24.894Z,-8.20
2019-01-24T03:02:54.554Z,-8.20
2019-01-24T03:05:24.693Z,-8.20
2019-01-24T03:07:54.420Z,-8.20
2019-01-24T03:10:24.052Z,-8.30
2019-01-24T03:12:53.733Z,-8.30
2019-01-24T03:15:23.331Z,-8.30
2019-01-24T03:17:52.992Z,-8.30
2019-01-24T03:20:22.686Z,-8.30
2019-01-24T03:22:52.279Z,-8.30
2019-01-24T03:25:22.046Z,-8.30
2019-01-24T03:27:51.746Z,-8.30
2019-01-24T03:30:22.942Z,-8.30
2019-01-24T03:33:05.265Z,-8.30
2019-01-24T03:35:34.909Z,-8.30
2019-01-24T03:38:04.544Z,-8.30
2019-01-24T03:40:34.237Z,-8.30
2019-01-24T03:43:04.551Z,-8.30
2019-01-24T03:45:34.163Z,-8.40
2019-01-24T03:48:03.751Z,-8.40
2019-01-24T03:50:33.392Z,-8.40
2019-01-24T03:53:03.151Z,-8.40
2019-01-24T03:55:32.762Z,-8.40
2019-01-24T03:58:02.520Z,-8.40
2019-01-24T04:00:32.122Z,-8.50
2019-01-24T04:03:01.816Z,-8.50
2019-01-24T04:05:31.531Z,-8.50
2019-01-24T04:08:01.186Z,-8.50
2019-01-24T04:10:30.843Z,-8.50
2019-01-24T04:13:00.596Z,-8.50
2019-01-24T04:15:30.379Z,-8.50
2019-01-24T04:18:00.054Z,-8.60
2019-01-24T04:20:29.852Z,-8.60
2019-01-24T04:22:59.570Z,-8.60
2019-01-24T04:25:29.255Z,-8.60
2019-01-24T04:27:58.966Z,-8.60
2019-01-24T04:30:28.568Z,-8.70
2019-01-24T04:32:58.308Z,-8.70
2019-01-24T04:35:27.925Z,-8.70
2019-01-24T04:37:57.535Z,-8.80
2019-01-24T04:40:27.130Z,-8.80
2019-01-24T04:42:56.799Z,-8.90
2019-01-24T04:45:26.449Z,-8.90
2019-01-24T04:47:56.325Z,-9.00
2019-01-24T04:50:26.093Z,-9.00
2019-01-24T04:52:55.675Z,-9.00
2019-01-24T04:55:25.369Z,-9.10
2019-01-24T04:57:55.142Z,-9.10
2019-01-24T05:00:27.028Z,-9.10
2019-01-24T05:02:56.695Z,-9.10
2019-01-24T05:05:27.858Z,-9.10
2019-01-24T05:07:57.494Z,-9.10
2019-01-24T05:10:27.218Z,-9.10
2019-01-24T05:12:56.816Z,-9.10
2019-01-24T05:15:26.623Z,-9.10
2019-01-24T05:17:56.806Z,-9.00
2019-01-24T05:20:26.577Z,-9.00
2019-01-24T05:22:56.333Z,-9.00
2019-01-24T05:25:26.076Z,-9.00
2019-01-24T05:27:55.690Z,-9.00
2019-01-24T05:30:26.494Z,-9.00
2019-01-24T05:32:57.267Z,-9.00
2019-01-24T05:35:26.925Z,-9.00
2019-01-24T05:37:56.553Z,-9.00
2019-01-24T05:40:26.247Z,-9.00
2019-01-24T05:42:55.951Z,-9.10
2019-01-24T05:45:25.561Z,-9.20
2019-01-24T05:47:55.182Z,-9.20
2019-01-24T05:50:25.867Z,-9.20
2019-01-24T05:52:55.547Z,-9.20
2019-01-24T05:55:25.264Z,-9.30
2019-01-24T05:57:54.968Z,-9.20
2019-01-24T06:00:28.979Z,-9.30
2019-01-24T06:02:58.680Z,-9.30
2019-01-24T06:05:28.356Z,-9.30
2019-01-24T06:07:58.041Z,-9.30
2019-01-24T06:10:27.656Z,-9.30
2019-01-24T06:12:57.294Z,-9.30
2019-01-24T06:15:26.963Z,-9.30
2019-01-24T06:17:56.567Z,-9.30
2019-01-24T06:20:26.325Z,-9.40
2019-01-24T06:22:56.023Z,-9.40
2019-01-24T06:25:25.788Z,-9.50
2019-01-24T06:27:55.390Z,-9.50
2019-01-24T06:30:25.089Z,-9.50
2019-01-24T06:32:55.565Z,-9.60
2019-01-24T06:35:25.248Z,-9.60
2019-01-24T06:37:54.931Z,-9.60
2019-01-24T06:40:24.606Z,-9.60
2019-01-24T06:42:54.225Z,-9.60
2019-01-24T06:45:23.984Z,-9.60
2019-01-24T06:47:53.894Z,-9.50
2019-01-24T06:50:23.596Z,-9.60
2019-01-24T06:52:53.214Z,-9.50
2019-01-24T06:55:27.398Z,-9.60
2019-01-24T06:57:57.002Z,-9.60
2019-01-24T07:00:26.704Z,-9.60
2019-01-24T07:02:56.579Z,-9.60
2019-01-24T07:05:26.160Z,-9.60
2019-01-24T07:07:55.780Z,-9.70
2019-01-24T07:10:25.437Z,-9.70
2019-01-24T07:12:55.140Z,-9.70
2019-01-24T07:15:24.910Z,-9.70
2019-01-24T07:17:55.530Z,-9.70
2019-01-24T07:20:25.149Z,-9.70
2019-01-24T07:22:54.737Z,-9.70
2019-01-24T07:25:27.083Z,-9.70
2019-01-24T07:27:56.771Z,-9.70
2019-01-24T07:30:26.470Z,-9.70
2019-01-24T07:32:56.104Z,-9.70
2019-01-24T07:35:25.763Z,-9.60
2019-01-24T07:37:55.479Z,-9.60
2019-01-24T07:40:25.229Z,-9.60
2019-01-24T07:42:54.823Z,-9.60
2019-01-24T07:45:33.170Z,-9.50
2019-01-24T07:48:02.761Z,-9.50
2019-01-24T07:50:32.532Z,-9.50
2019-01-24T07:53:02.298Z,-9.50
2019-01-24T07:55:31.882Z,-9.50
2019-01-24T07:58:01.848Z,-9.40
2019-01-24T08:00:31.517Z,-9.40
2019-01-24T08:03:01.205Z,-9.30
2019-01-24T08:05:31.408Z,-9.20
2019-01-24T08:08:01.003Z,-9.20
2019-01-24T08:10:30.692Z,-9.10
2019-01-24T08:13:00.376Z,-9.00
2019-01-24T08:15:30.065Z,-8.90
2019-01-24T08:17:59.784Z,-8.60
2019-01-24T08:20:29.395Z,-8.20
2019-01-24T08:22:59.017Z,-8.00
2019-01-24T08:25:28.622Z,-7.60
2019-01-24T08:27:58.232Z,-7.40
2019-01-24T08:30:32.653Z,-7.30
2019-01-24T08:33:02.335Z,-7.00
2019-01-24T08:35:32.620Z,-7.10
2019-01-24T08:38:02.314Z,-7.00
2019-01-24T08:40:32.341Z,-7.00
2019-01-24T08:43:01.922Z,-7.00
2019-01-24T08:45:31.518Z,-7.10
2019-01-24T08:48:01.118Z,-7.20
2019-01-24T08:50:30.733Z,-7.30
2019-01-24T08:53:00.532Z,-7.40
2019-01-24T08:55:35.496Z,-7.50
2019-01-24T08:58:05.868Z,-7.40
2019-01-24T09:00:35.574Z,-7.40
2019-01-24T09:03:05.378Z,-7.30
2019-01-24T09:05:35.000Z,-7.20
2019-01-24T09:08:05.183Z,-7.20
2019-01-24T09:10:36.892Z,-7.10
2019-01-24T09:13:07.893Z,-6.90
2019-01-24T09:15:37.638Z,-6.70
2019-01-24T09:18:07.616Z,-6.50
2019-01-24T09:20:37.392Z,-6.40
2019-01-24T09:23:08.439Z,-6.30
2019-01-24T09:25:38.290Z,-6.10
2019-01-24T09:28:14.638Z,-6.00
2019-01-24T09:30:40.268Z,-5.90
2019-01-24T09:33:09.971Z,-5.70
2019-01-24T09:35:39.675Z,-5.50
2019-01-24T09:38:09.295Z,-5.50
2019-01-24T09:40:39.007Z,-5.40
2019-01-24T09:43:08.640Z,-5.20
2019-01-24T09:45:40.149Z,-4.70
2019-01-24T09:48:10.316Z,-2.60
2019-01-24T09:50:40.027Z,-0.90
2019-01-24T09:53:12.071Z,0.50
2019-01-24T09:55:41.889Z,1.50
2019-01-24T09:58:12.617Z,2.00
2019-01-24T10:00:42.285Z,2.10
2019-01-24T10:03:13.063Z,2.50
2019-01-24T10:05:42.751Z,2.40
2019-01-24T10:08:12.856Z,1.20
2019-01-24T10:10:42.682Z,0.50
2019-01-24T10:13:12.268Z,-0.20
2019-01-24T10:15:43.034Z,-0.70
2019-01-24T10:18:12.774Z,-1.00
2019-01-24T10:20:42.503Z,-1.30
2019-01-24T10:23:12.195Z,-1.30
2019-01-24T10:25:41.944Z,-1.30
2019-01-24T10:28:11.772Z,-1.30
2019-01-24T10:30:43.008Z,-1.20
2019-01-24T10:33:12.918Z,-1.20
2019-01-24T10:35:43.713Z,-1.20
2019-01-24T10:38:13.388Z,-1.00
2019-01-24T10:40:43.033Z,-1.00
2019-01-24T10:43:12.639Z,-0.80
2019-01-24T10:45:42.646Z,-0.60
2019-01-24T10:48:12.364Z,-0.30
2019-01-24T10:50:42.045Z,0.10
2019-01-24T10:53:11.699Z,0.30
2019-01-24T10:55:41.392Z,0.60
2019-01-24T10:58:11.062Z,1.00
2019-01-24T11:00:40.821Z,1.50
2019-01-24T11:03:11.596Z,1.70
2019-01-24T11:05:41.205Z,2.30
2019-01-24T11:08:10.815Z,2.00
2019-01-24T11:10:40.431Z,1.50
2019-01-24T11:13:10.106Z,1.00
2019-01-24T11:15:39.915Z,0.70
2019-01-24T11:18:09.582Z,0.60
2019-01-24T11:20:39.359Z,0.50
2019-01-24T11:23:09.221Z,0.60
2019-01-24T11:25:39.467Z,0.70
2019-01-24T11:28:09.146Z,3.60
2019-01-24T11:30:38.895Z,5.90
2019-01-24T11:33:09.067Z,7.70
2019-01-24T11:35:38.681Z,8.60
2019-01-24T11:38:08.860Z,9.40
2019-01-24T11:40:38.542Z,9.90
2019-01-24T11:43:08.260Z,9.60
2019-01-24T11:45:40.032Z,9.10
2019-01-24T11:48:09.669Z,8.60
2019-01-24T11:50:39.323Z,8.90
2019-01-24T11:53:08.929Z,9.00
2019-01-24T11:55:38.646Z,9.40
2019-01-24T11:58:08.512Z,9.70
2019-01-24T12:00:40.836Z,9.20
2019-01-24T12:03:10.420Z,9.00
2019-01-24T12:05:40.073Z,8.20
2019-01-24T12:08:09.846Z,7.10
2019-01-24T12:10:39.523Z,6.40
2019-01-24T12:13:09.167Z,7.40
2019-01-24T12:15:38.787Z,7.40
2019-01-24T12:18:08.392Z,7.80
2019-01-24T12:20:38.011Z,7.30
2019-01-24T12:23:07.600Z,6.80
2019-01-24T12:25:38.327Z,6.20
2019-01-24T12:28:07.951Z,4.80
2019-01-24T12:30:37.799Z,4.00
2019-01-24T12:33:07.417Z,3.40
2019-01-24T12:35:37.268Z,2.80
2019-01-24T12:38:06.940Z,2.50
2019-01-24T12:40:36.612Z,2.30
2019-01-24T12:43:06.283Z,2.00
2019-01-24T12:45:37.285Z,1.80
2019-01-24T12:48:07.118Z,1.70
2019-01-24T12:50:36.711Z,1.70
2019-01-24T12:53:07.099Z,1.50
2019-01-24T12:55:36.695Z,1.40
2019-01-24T12:58:06.425Z,1.30
2019-01-24T13:00:37.322Z,1.20
2019-01-24T13:03:06.917Z,1.10
2019-01-24T13:05:36.574Z,0.90
2019-01-24T13:08:06.365Z,0.90
2019-01-24T13:10:35.948Z,0.80
2019-01-24T13:13:05.757Z,0.60
2019-01-24T13:15:37.442Z,0.70
2019-01-24T13:18:07.090Z,0.60
2019-01-24T13:20:36.788Z,0.60
2019-01-24T13:23:06.564Z,0.60
2019-01-24T13:25:36.239Z,0.70
2019-01-24T13:28:05.994Z,0.40
2019-01-24T13:30:35.646Z,0.50
2019-01-24T13:33:05.967Z,0.20
2019-01-24T13:35:35.625Z,0.10
2019-01-24T13:38:06.035Z,0.10
2019-01-24T13:40:35.800Z,0.10
2019-01-24T13:43:05.558Z,0.10
2019-01-24T13:45:36.431Z,0.20
2019-01-24T13:48:06.632Z,0.20
2019-01-24T13:50:36.303Z,0.00
2019-01-24T13:53:07.279Z,0.00
2019-01-24T13:55:36.947Z,-0.10
2019-01-24T13:58:06.900Z,-0.30
2019-01-24T14:00:37.018Z,-0.30
2019-01-24T14:03:12.881Z,-0.40
2019-01-24T14:05:42.571Z,-0.50
2019-01-24T14:08:12.217Z,-0.60
2019-01-24T14:10:41.771Z,-0.70
2019-01-24T14:13:11.376Z,-0.80
2019-01-24T14:15:41.066Z,-1.00
2019-01-24T14:18:10.714Z,-1.00
2019-01-24T14:20:40.389Z,-1.00
2019-01-24T14:23:10.161Z,-1.10
2019-01-24T14:25:40.812Z,-1.10
2019-01-24T14:28:10.474Z,-1.10
2019-01-24T14:30:40.154Z,-1.20
2019-01-24T14:33:09.836Z,-1.20
2019-01-24T14:35:39.512Z,-1.30
2019-01-24T14:38:09.797Z,-1.20
2019-01-24T14:40:39.439Z,-1.30
2019-01-24T14:43:09.114Z,-1.30
2019-01-24T14:45:38.699Z,-1.20
2019-01-24T14:48:08.714Z,-1.20
2019-01-24T14:50:38.547Z,-1.30
2019-01-24T14:53:08.187Z,-1.20
2019-01-24T14:55:37.948Z,-1.30
2019-01-24T14:58:07.587Z,-1.30
2019-01-24T15:00:40.257Z,-1.30
2019-01-24T15:03:10.004Z,-1.30
2019-01-24T15:05:39.679Z,-1.40
2019-01-24T15:08:09.979Z,-1.40
2019-01-24T15:10:39.560Z,-1.40
2019-01-24T15:13:09.245Z,-1.40
2019-01-24T15:15:38.942Z,-1.50
2019-01-24T15:18:08.646Z,-1.60
2019-01-24T15:20:38.336Z,-1.60
2019-01-24T15:23:08.203Z,-1.70
2019-01-24T15:25:38.166Z,-1.80
2019-01-24T15:28:09.464Z,-1.80
2019-01-24T15:30:39.154Z,-1.90
2019-01-24T15:33:09.252Z,-1.90
2019-01-24T15:35:38.947Z,-2.00
2019-01-24T15:38:08.631Z,-2.10
2019-01-24T15:40:38.860Z,-2.10
2019-01-24T15:43:08.679Z,-2.20
2019-01-24T15:45:39.380Z,-2.20
2019-01-24T15:48:09.159Z,-2.20
2019-01-24T15:50:39.074Z,-2.20
2019-01-24T15:53:08.815Z,-2.30
2019-01-24T15:55:38.498Z,-2.30
2019-01-24T15:58:08.929Z,-2.30
2019-01-24T16:00:38.664Z,-2.40
2019-01-24T16:03:09.381Z,-2.40
2019-01-24T16:05:39.285Z,-2.50
2019-01-24T16:08:10.498Z,-2.50
2019-01-24T16:10:41.186Z,-2.50
2019-01-24T16:13:10.945Z,-2.60
2019-01-24T16:15:40.642Z,-2.60
2019-01-24T16:18:11.132Z,-2.70
2019-01-24T16:20:45.081Z,-2.70
2019-01-24T16:23:14.764Z,-2.80
2019-01-24T16:25:44.499Z,-3.00
2019-01-24T16:28:14.260Z,-3.10
2019-01-24T16:30:43.969Z,-3.20
2019-01-24T16:33:13.696Z,-3.30
2019-01-24T16:35:43.399Z,-3.40
2019-01-24T16:38:15.501Z,-3.50
2019-01-24T16:40:45.651Z,-3.60
2019-01-24T16:43:15.401Z,-3.70
2019-01-24T16:45:46.193Z,-3.80
2019-01-24T16:48:17.522Z,-3.90
2019-01-24T16:50:47.194Z,-4.00
2019-01-24T16:53:16.943Z,-4.10
2019-01-24T16:55:46.966Z,-4.20
2019-01-24T16:58:16.733Z,-4.20
2019-01-24T17:00:48.389Z,-4.30
2019-01-24T17:03:18.125Z,-4.30
2019-01-24T17:05:47.888Z,-4.30
2019-01-24T17:08:17.548Z,-4.30
2019-01-24T17:10:47.201Z,-4.30
2019-01-24T17:13:16.923Z,-4.40
2019-01-24T17:15:46.642Z,-4.40
2019-01-24T17:18:16.402Z,-4.50
2019-01-24T17:20:47.832Z,-4.60
2019-01-24T17:23:17.532Z,-4.60
2019-01-24T17:25:48.320Z,-4.60
2019-01-24T17:28:18.127Z,-4.60
2019-01-24T17:30:48.198Z,-4.60
2019-01-24T17:33:17.885Z,-4.60
2019-01-24T17:35:47.625Z,-4.60
2019-01-24T17:38:23.607Z,-4.70
2019-01-24T17:40:51.628Z,-4.70
2019-01-24T17:43:21.401Z,-4.80
2019-01-24T17:45:51.196Z,-4.90
2019-01-24T17:48:22.413Z,-5.00
2019-01-24T17:50:53.713Z,-5.10
2019-01-24T17:53:23.456Z,-5.10
2019-01-24T17:55:53.094Z,-5.20
2019-01-24T17:58:23.429Z,-5.20
2019-01-24T18:00:53.781Z,-5.20
2019-01-24T18:03:23.540Z,-5.20
2019-01-24T18:05:53.239Z,-5.30
2019-01-24T18:08:23.011Z,-5.30
2019-01-24T18:10:53.739Z,-5.40
2019-01-24T18:13:25.440Z,-5.40
2019-01-24T18:15:55.542Z,-5.40
2019-01-24T18:18:25.291Z,-5.50
2019-01-24T18:20:56.397Z,-5.60
2019-01-24T18:23:26.177Z,-5.60
2019-01-24T18:25:55.979Z,-5.60
2019-01-24T18:28:28.670Z,-5.70
2019-01-24T18:30:58.754Z,-5.70
2019-01-24T18:33:28.517Z,-5.80
2019-01-24T18:35:58.823Z,-5.80
2019-01-24T18:38:28.540Z,-5.80
2019-01-24T18:40:58.486Z,-5.80
2019-01-24T18:43:28.341Z,-5.80
2019-01-24T18:45:59.554Z,-5.70
2019-01-24T18:48:29.452Z,-5.70
2019-01-24T18:50:59.054Z,-5.80
2019-01-24T18:53:30.288Z,-5.80
2019-01-24T18:55:59.969Z,-5.80
2019-01-24T18:58:29.689Z,-5.80
2019-01-24T19:01:00.097Z,-5.90
2019-01-24T19:03:29.836Z,-5.90
2019-01-24T19:05:59.517Z,-5.90
2019-01-24T19:08:29.192Z,-6.00
2019-01-24T19:10:58.854Z,-6.00
2019-01-24T19:13:29.522Z,-6.00
2019-01-24T19:16:00.284Z,-6.00
2019-01-24T19:18:29.936Z,-6.00
2019-01-24T19:21:00.633Z,-6.00
2019-01-24T19:23:30.199Z,-6.00
2019-01-24T19:25:59.834Z,-6.00
2019-01-24T19:28:29.551Z,-6.00
2019-01-24T19:30:59.221Z,-5.90
2019-01-24T19:33:29.007Z,-5.90
2019-01-24T19:36:00.420Z,-5.90
2019-01-24T19:38:30.046Z,-5.80
2019-01-24T19:40:59.743Z,-5.80
2019-01-24T19:43:29.362Z,-5.70
2019-01-24T19:45:59.114Z,-5.70
2019-01-24T19:48:28.777Z,-5.70
2019-01-24T19:50:58.439Z,-5.60
2019-01-24T19:53:29.454Z,-5.60
2019-01-24T19:56:00.177Z,-5.50
2019-01-24T19:58:29.930Z,-5.50
2019-01-24T20:00:59.619Z,-5.50
2019-01-24T20:03:29.297Z,-5.50
2019-01-24T20:06:00.022Z,-5.40
2019-01-24T20:08:29.751Z,-5.40
2019-01-24T20:10:59.339Z,-5.40
2019-01-24T20:13:29.026Z,-5.40
2019-01-24T20:15:58.690Z,-5.40
2019-01-24T20:18:29.416Z,-5.40
2019-01-24T20:20:59.094Z,-5.40
2019-01-24T20:23:28.881Z,-5.30
2019-01-24T20:26:00.114Z,-5.30
2019-01-24T20:28:29.933Z,-5.30
2019-01-24T20:30:59.666Z,-5.30
2019-01-24T20:33:29.287Z,-5.20
2019-01-24T20:35:58.975Z,-5.20
2019-01-24T20:38:28.643Z,-5.20
2019-01-24T20:40:58.451Z,-5.10
2019-01-24T20:43:28.062Z,-5.10
2019-01-24T20:45:57.750Z,-5.10
2019-01-24T20:48:27.428Z,-5.00
2019-01-24T20:50:57.159Z,-5.00
2019-01-24T20:53:26.944Z,-5.00
2019-01-24T20:55:56.728Z,-5.00
2019-01-24T20:58:26.407Z,-4.90
2019-01-24T21:00:56.026Z,-4.90
2019-01-24T21:03:25.777Z,-4.90
2019-01-24T21:05:55.392Z,-4.80
2019-01-24T21:08:25.139Z,-4.80
2019-01-24T21:10:54.825Z,-4.80
2019-01-24T21:13:24.434Z,-4.80
2019-01-24T21:15:54.104Z,-4.80
2019-01-24T21:18:23.721Z,-4.70
2019-01-24T21:20:53.389Z,-4.70
2019-01-24T21:23:23.151Z,-4.70
2019-01-24T21:25:52.750Z,-4.60
2019-01-24T21:28:22.485Z,-4.60
2019-01-24T21:30:52.194Z,-4.60
2019-01-24T21:33:22.887Z,-4.60
2019-01-24T21:35:52.645Z,-4.50
2019-01-24T21:38:22.381Z,-4.50
2019-01-24T21:40:52.115Z,-4.50
2019-01-24T21:43:21.814Z,-4.40
2019-01-24T21:45:51.525Z,-4.40
2019-01-24T21:48:21.213Z,-4.40
2019-01-24T21:50:51.956Z,-4.40
2019-01-24T21:53:21.703Z,-4.40
2019-01-24T21:55:51.399Z,-4.30
2019-01-24T21:58:21.175Z,-4.30
2019-01-24T22:00:50.859Z,-4.30
2019-01-24T22:03:20.567Z,-4.30
2019-01-24T22:05:50.179Z,-4.30
2019-01-24T22:08:19.942Z,-4.30
2019-01-24T22:10:49.623Z,-4.30
2019-01-24T22:13:19.376Z,-4.30
2019-01-24T22:15:49.051Z,-4.20
2019-01-24T22:18:18.727Z,-4.30
2019-01-24T22:20:55.363Z,-4.20
2019-01-24T22:23:19.614Z,-4.20
2019-01-24T22:25:49.300Z,-4.20
2019-01-24T22:28:19.062Z,-4.10
2019-01-24T22:30:49.586Z,-4.10
2019-01-24T22:33:19.287Z,-4.10
2019-01-24T22:35:49.027Z,-4.10
2019-01-24T22:38:18.791Z,-4.10
2019-01-24T22:40:48.672Z,-4.10
2019-01-24T22:43:18.440Z,-4.10
2019-01-24T22:45:48.151Z,-4.10
2019-01-24T22:48:17.765Z,-4.10
2019-01-24T22:50:47.810Z,-4.20
2019-01-24T22:53:17.556Z,-4.10
2019-01-24T22:55:47.229Z,-4.10
2019-01-24T22:58:16.823Z,-4.10
2019-01-24T23:00:53.136Z,-4.10
2019-01-24T23:03:33.906Z,-4.00
2019-01-24T23:06:03.692Z,-4.00
2019-01-24T23:08:33.356Z,-4.00
2019-01-24T23:11:04.338Z,-4.10
2019-01-24T23:13:34.026Z,-4.00
2019-01-24T23:16:03.837Z,-4.00
2019-01-24T23:18:34.151Z,-4.00
2019-01-24T23:21:03.963Z,-4.00
2019-01-24T23:23:33.542Z,-4.10
2019-01-24T23:26:03.568Z,-4.10
2019-01-24T23:28:33.231Z,-4.10
2019-01-24T23:31:03.147Z,-4.20
2019-01-24T23:33:32.750Z,-4.20
2019-01-24T23:36:02.439Z,-4.20
2019-01-24T23:38:32.127Z,-4.20
2019-01-24T23:41:01.892Z,-4.20
2019-01-24T23:43:31.648Z,-4.20
2019-01-24T23:46:01.489Z,-4.20
2019-01-24T23:48:32.430Z,-4.30
2019-01-24T23:51:03.358Z,-4.30
2019-01-24T23:53:32.977Z,-4.30
2019-01-24T23:56:02.645Z,-4.30
2019-01-24T23:58:32.334Z,-4.30
